Time;durP1;ratioP1;P1;durP2;ratioP2;P2;SDS_P1;SDS_P2;PMS_P1;PMS_P2;Temp;Humidity;BMP_temperature;BMP_pressure;BME280_temperature;BME280_humidity;BME280_pressure;Samples;Min_cycle;Max_cycle;Signal;HPM_P1;HPM_P2
2023/01/12 00:00:35;;;;;;;7.10;3.63;;;4.50;99.90;;;5.00;100.00;98296.66;5219856;28;20198;-62
2023/01/12 00:03:08;;;;;;;5.57;3.53;;;4.50;99.90;;;4.94;100.00;98281.81;5222571;28;20267;-62
2023/01/12 00:05:41;;;;;;;4.40;3.30;;;4.50;99.90;;;4.99;100.00;98277.16;5222695;28;20213;-62
2023/01/12 00:08:16;;;;;;;6.13;3.70;;;4.50;99.90;;;4.95;100.00;98276.88;5222946;28;20287;-62
2023/01/12 00:10:49;;;;;;;5.20;3.50;;;4.50;99.90;;;4.92;100.00;98284.22;5221927;28;20235;-62
2023/01/12 00:13:22;;;;;;;6.27;3.50;;;4.40;99.90;;;4.86;100.00;98285.31;5223453;28;20835;-62
2023/01/12 00:18:48;;;;;;;5.10;3.27;;;4.40;99.90;;;4.83;100.00;98283.41;5218553;28;20295;-62
2023/01/12 00:21:21;;;;;;;6.37;3.17;;;4.30;99.90;;;4.85;100.00;98292.03;5220044;28;20203;-62
2023/01/12 00:23:56;;;;;;;3.77;3.10;;;4.30;99.90;;;4.85;100.00;98289.50;5223695;28;20712;-61
2023/01/12 00:26:29;;;;;;;4.07;3.63;;;4.30;99.90;;;4.72;100.00;98299.31;5220710;28;20751;-61
2023/01/12 00:29:02;;;;;;;7.73;4.60;;;4.20;99.90;;;4.65;100.00;98305.50;5223566;28;20206;-61
2023/01/12 00:31:35;;;;;;;8.50;4.93;;;4.10;99.90;;;4.56;100.00;98301.31;5222341;28;20300;-61
2023/01/12 00:34:08;;;;;;;5.83;4.90;;;4.10;99.90;;;4.54;100.00;98302.81;5218390;28;20951;-62
2023/01/12 00:36:42;;;;;;;8.67;4.30;;;4.00;99.90;;;4.50;100.00;98296.59;5221383;28;20301;-62
2023/01/12 00:39:17;;;;;;;5.20;4.27;;;4.00;99.90;;;4.50;100.00;98287.34;5227685;28;20276;-62
2023/01/12 00:47:32;;;;;;;5.17;4.03;;;4.00;99.90;;;4.42;100.00;98298.44;5222130;28;21028;-62
2023/01/12 00:50:06;;;;;;;6.33;4.03;;;4.00;99.90;;;4.47;100.00;98297.22;5223116;28;20657;-62
2023/01/12 00:52:39;;;;;;;3.87;3.43;;;3.90;99.90;;;4.55;100.00;98294.44;5222375;28;20360;-62
2023/01/12 00:55:13;;;;;;;4.33;3.50;;;4.00;99.90;;;4.55;100.00;98299.50;5219299;28;20297;-62
2023/01/12 00:57:46;;;;;;;6.73;3.23;;;4.10;99.90;;;4.64;100.00;98291.09;5223913;28;20716;-62
2023/01/12 01:00:20;;;;;;;4.97;3.13;;;4.10;99.90;;;4.78;100.00;98294.81;5218989;28;20304;-62
2023/01/12 01:02:53;;;;;;;5.20;3.40;;;4.20;99.90;;;4.80;100.00;98288.22;5221674;28;20593;-62
2023/01/12 01:05:26;;;;;;;4.50;3.20;;;4.30;99.90;;;4.86;100.00;98283.69;5222054;28;20612;-62
2023/01/12 01:07:59;;;;;;;5.27;3.47;;;4.40;99.90;;;5.07;100.00;98278.69;5222831;28;20282;-60
2023/01/12 01:10:34;;;;;;;5.43;3.37;;;4.50;99.90;;;5.23;100.00;98266.53;5220818;28;20701;-60
2023/01/12 01:13:07;;;;;;;5.83;3.20;;;4.60;99.90;;;5.24;100.00;98270.88;5217906;28;20948;-62
2023/01/12 01:15:40;;;;;;;5.30;3.50;;;4.70;99.90;;;5.30;100.00;98276.44;5221222;28;20626;-62
2023/01/12 01:18:13;;;;;;;7.07;3.20;;;4.80;99.90;;;5.64;100.00;98272.53;5221637;28;20296;-62
2023/01/12 01:20:47;;;;;;;5.17;3.00;;;5.00;99.90;;;5.65;100.00;98276.84;5222151;28;20209;-62
2023/01/12 01:23:20;;;;;;;4.43;2.93;;;5.10;99.90;;;5.72;100.00;98274.78;5222546;28;20709;-62
2023/01/12 01:25:55;;;;;;;5.33;3.00;;;5.10;99.90;;;5.82;100.00;98285.84;5212814;28;20311;-62
2023/01/12 01:28:28;;;;;;;6.87;3.13;;;5.30;99.90;;;5.83;100.00;98285.06;5223258;28;20256;-62
2023/01/12 01:31:06;;;;;;;3.60;2.50;;;5.40;99.90;;;5.93;100.00;98280.75;5221892;28;20295;-62
2023/01/12 01:33:40;;;;;;;4.43;2.80;;;5.40;99.90;;;6.19;100.00;98290.53;5222732;28;20356;-62
2023/01/12 01:36:14;;;;;;;3.57;2.50;;;5.70;99.90;;;6.08;100.00;98285.44;5223303;28;20284;-60
2023/01/12 01:38:50;;;;;;;4.37;2.80;;;5.60;99.90;;;6.26;100.00;98278.41;5217825;28;20208;-62
2023/01/12 01:41:26;;;;;;;6.43;2.60;;;5.80;99.90;;;6.29;100.00;98277.78;5217394;28;20280;-61
2023/01/12 01:44:02;;;;;;;5.20;2.33;;;5.90;99.90;;;6.29;100.00;98272.72;5221872;28;20275;-61
2023/01/12 01:46:42;;;;;;;6.23;3.00;;;6.00;99.90;;;6.23;100.00;98283.25;5219970;28;20227;-62
2023/01/12 01:49:28;;;;;;;7.67;3.37;;;5.90;99.90;;;6.30;100.00;98283.00;5219996;28;20201;-61
2023/01/12 01:52:06;;;;;;;6.20;4.33;;;5.90;99.90;;;6.32;100.00;98294.16;5221123;28;20206;-61
2023/01/12 01:54:44;;;;;;;4.27;3.40;;;5.90;99.90;;;6.42;100.00;98288.16;5224291;28;20583;-62
2023/01/12 01:57:19;;;;;;;6.53;3.40;;;6.10;99.90;;;6.31;100.00;98287.31;5220408;28;20193;-62
2023/01/12 01:59:55;;;;;;;3.93;2.40;;;6.00;99.90;;;6.18;100.00;98289.63;5222619;28;20626;-62
2023/01/12 02:02:28;;;;;;;3.70;2.20;;;5.80;99.90;;;6.29;100.00;98283.75;5217867;28;20225;-62
2023/01/12 02:05:02;;;;;;;6.03;2.50;;;5.90;99.90;;;6.42;100.00;98294.91;5218030;28;20672;-62
2023/01/12 02:07:35;;;;;;;3.73;2.43;;;6.00;99.90;;;6.44;100.00;98295.88;5218025;28;20225;-62
2023/01/12 02:10:10;;;;;;;4.40;2.93;;;6.10;99.90;;;6.42;100.00;98305.94;5216005;28;20296;-62
2023/01/12 02:18:47;;;;;;;5.13;3.07;;;6.20;99.90;;;6.57;100.00;98280.88;5219106;28;20197;-61
2023/01/12 02:21:43;;;;;;;6.37;3.50;;;6.30;99.90;;;6.49;100.00;98284.44;5220423;28;20215;-62
2023/01/12 02:25:06;;;;;;;6.23;2.80;;;6.30;99.90;;;6.55;100.00;98277.31;5215565;28;20248;-62
2023/01/12 02:28:20;;;;;;;6.87;5.60;;;6.30;99.90;;;6.62;100.00;98273.63;5220127;28;20197;-62
2023/01/12 02:31:35;;;;;;;4.77;2.40;;;6.40;99.90;;;6.67;100.00;98257.09;5221405;28;20244;-62
2023/01/12 02:34:23;;;;;;;23.47;15.10;;;6.50;99.90;;;6.64;100.00;98260.28;5216194;28;20706;-62
2023/01/12 02:37:07;;;;;;;4.27;2.93;;;6.40;99.90;;;6.70;100.00;98257.34;5218061;28;20197;-62
2023/01/12 02:39:45;;;;;;;4.97;2.63;;;6.40;99.90;;;6.73;100.00;98250.84;5218717;28;20201;-61
2023/01/12 02:45:32;;;;;;;6.77;3.07;;;6.50;99.90;;;6.81;100.00;98241.28;5211687;28;20287;-63
2023/01/12 02:48:15;;;;;;;47.27;37.43;;;6.50;99.90;;;6.92;100.00;98239.56;5217689;28;20207;-63
2023/01/12 02:50:56;;;;;;;7.40;3.90;;;6.60;99.90;;;6.90;100.00;98234.38;5217600;28;20200;-62
2023/01/12 02:53:34;;;;;;;6.60;2.80;;;6.60;99.90;;;6.87;98.46;98226.50;5219134;28;20224;-62
2023/01/12 02:56:08;;;;;;;5.00;2.80;;;6.60;99.90;;;6.93;98.93;98219.34;5218801;28;20290;-62
2023/01/12 02:58:45;;;;;;;7.03;3.93;;;6.60;99.90;;;6.93;97.24;98208.31;5219750;28;20197;-62
2023/01/12 03:01:20;;;;;;;8.83;2.87;;;6.70;99.90;;;6.92;98.33;98214.16;5216284;28;20201;-62
2023/01/12 03:03:58;;;;;;;4.77;2.67;;;6.70;99.90;;;6.94;98.22;98213.50;5218339;28;20247;-62
2023/01/12 03:06:45;;;;;;;4.60;2.47;;;6.70;99.90;;;6.94;97.13;98202.44;5214211;28;20787;-61
2023/01/12 03:09:19;;;;;;;6.23;2.40;;;6.70;99.90;;;6.97;96.93;98203.56;5220947;28;20236;-62
2023/01/12 03:11:58;;;;;;;4.60;2.70;;;6.70;99.90;;;7.04;96.75;98201.50;5223385;28;20551;-62
2023/01/12 03:14:33;;;;;;;6.57;2.90;;;6.60;99.90;;;7.06;97.04;98187.25;5218995;28;21607;-62
2023/01/12 03:17:14;;;;;;;4.43;2.93;;;6.60;99.90;;;6.92;99.43;98193.81;5225526;28;20292;-61
2023/01/12 03:19:50;;;;;;;4.40;2.67;;;6.50;99.90;;;6.99;98.67;98191.88;5220358;28;20224;-62
2023/01/12 03:22:24;;;;;;;4.90;2.30;;;6.60;99.90;;;7.09;96.82;98188.34;5217416;28;20236;-62
2023/01/12 03:25:01;;;;;;;5.80;2.60;;;6.60;99.90;;;6.89;99.92;98191.03;5220965;28;20197;-61
2023/01/12 03:27:39;;;;;;;5.43;2.90;;;6.40;99.90;;;6.94;99.06;98203.34;5216065;28;20209;-63
2023/01/12 03:30:19;;;;;;;4.77;2.50;;;6.40;99.90;;;6.86;98.91;98193.34;5212730;28;20306;-62
2023/01/12 03:32:53;;;;;;;5.53;2.80;;;6.30;99.90;;;6.75;99.54;98185.81;5218898;28;20224;-62
2023/01/12 03:35:32;;;;;;;6.17;3.07;;;6.20;99.90;;;6.76;100.00;98194.31;5218572;28;20713;-62
2023/01/12 03:38:13;;;;;;;4.67;2.63;;;6.10;99.90;;;6.82;99.84;98207.47;5218966;28;20248;-62
2023/01/12 03:40:50;;;;;;;6.90;2.50;;;6.20;99.90;;;6.73;98.43;98201.69;5217105;28;20200;-63
2023/01/12 03:43:31;;;;;;;5.27;2.73;;;6.20;99.90;;;6.66;100.00;98195.25;5215588;28;20604;-63
2023/01/12 03:46:12;;;;;;;3.93;2.40;;;6.10;99.90;;;6.62;100.00;98205.06;5219786;28;20239;-62
2023/01/12 03:48:51;;;;;;;4.73;2.60;;;6.00;99.90;;;6.62;100.00;98208.47;5214674;28;20206;-62
2023/01/12 03:51:29;;;;;;;5.27;2.70;;;6.00;99.90;;;6.53;100.00;98201.03;5220889;28;20251;-60
2023/01/12 03:54:04;;;;;;;5.83;2.83;;;6.00;99.90;;;6.50;100.00;98203.34;5217205;28;20652;-62
2023/01/12 03:56:39;;;;;;;6.10;2.40;;;5.90;99.90;;;6.44;100.00;98201.94;5219577;28;20202;-62
2023/01/12 03:59:14;;;;;;;4.97;2.33;;;5.90;99.90;;;6.37;100.00;98198.06;5219709;28;20224;-60
2023/01/12 04:01:47;;;;;;;6.60;2.80;;;5.80;99.90;;;6.38;100.00;98198.94;5223051;28;20313;-63
2023/01/12 04:04:22;;;;;;;7.63;2.70;;;5.80;99.90;;;6.32;100.00;98192.63;5222809;28;20347;-62
2023/01/12 04:06:57;;;;;;;4.37;2.67;;;5.70;99.90;;;6.26;100.00;98202.28;5222987;28;20235;-62
2023/01/12 04:09:32;;;;;;;4.87;2.70;;;5.70;99.90;;;6.30;100.00;98214.47;5219900;28;20197;-63
2023/01/12 04:12:12;;;;;;;5.03;2.40;;;5.70;99.90;;;6.18;100.00;98203.34;5221258;28;20291;-62
2023/01/12 04:14:47;;;;;;;5.87;2.70;;;5.60;99.90;;;6.11;100.00;98206.16;5222904;28;20205;-60
2023/01/12 04:17:23;;;;;;;5.87;2.70;;;5.50;99.90;;;6.07;100.00;98199.06;5219220;28;20235;-63
2023/01/12 04:19:56;;;;;;;5.27;2.60;;;5.40;99.90;;;5.99;100.00;98205.19;5218578;28;20205;-62
2023/01/12 04:22:42;;;;;;;6.90;2.77;;;5.40;99.90;;;5.97;100.00;98201.63;5220610;28;20233;-62
2023/01/12 04:25:18;;;;;;;5.80;2.50;;;5.30;99.90;;;6.12;100.00;98205.38;5219974;28;20299;-62
2023/01/12 04:27:54;;;;;;;4.80;2.47;;;5.40;99.90;;;6.09;100.00;98198.44;5222760;28;20225;-63
2023/01/12 04:30:29;;;;;;;8.53;2.60;;;5.40;99.90;;;6.11;100.00;98215.41;5220825;28;20523;-60
2023/01/12 04:33:08;;;;;;;4.97;2.80;;;5.50;99.90;;;6.16;100.00;98199.78;5221374;28;20216;-60
2023/01/12 04:35:41;;;;;;;5.00;2.60;;;5.50;99.90;;;6.14;100.00;98191.16;5221551;28;20255;-62
2023/01/12 04:38:17;;;;;;;4.80;2.33;;;5.50;99.90;;;6.00;100.00;98196.78;5223708;28;20910;-62
2023/01/12 04:40:54;;;;;;;4.73;2.80;;;5.50;99.90;;;6.13;100.00;98199.56;5221781;28;20655;-62
2023/01/12 04:43:27;;;;;;;8.13;2.77;;;5.50;99.90;;;6.28;100.00;98200.75;5215577;28;20245;-63
2023/01/12 04:46:06;;;;;;;5.27;2.53;;;5.60;99.90;;;6.39;100.00;98188.91;5220291;28;20236;-62
2023/01/12 04:48:39;;;;;;;8.23;3.23;;;5.80;99.90;;;6.32;100.00;98177.41;5228021;28;20217;-62
2023/01/12 04:51:12;;;;;;;8.20;3.17;;;5.70;99.90;;;6.28;100.00;98185.53;5218906;28;20673;-62
2023/01/12 04:53:48;;;;;;;5.47;3.00;;;5.70;99.90;;;6.31;100.00;98184.88;5224045;28;20316;-63
2023/01/12 04:56:21;;;;;;;3.83;2.47;;;5.70;99.90;;;6.46;100.00;98173.38;5221852;28;20621;-61
2023/01/12 04:58:58;;;;;;;7.20;2.73;;;5.80;99.90;;;6.43;100.00;98169.72;5219422;28;20233;-62
2023/01/12 05:01:31;;;;;;;5.73;2.50;;;5.80;99.90;;;6.51;100.00;98173.75;5217222;28;20731;-60
2023/01/12 05:04:05;;;;;;;5.17;2.30;;;5.80;99.90;;;6.57;100.00;98169.13;5214632;28;20248;-62
2023/01/12 05:06:40;;;;;;;7.03;2.97;;;5.90;99.90;;;6.61;100.00;98161.00;5219236;28;20209;-62
2023/01/12 05:12:06;;;;;;;4.90;3.07;;;6.00;99.90;;;6.72;98.14;98152.56;5221133;28;20292;-62
2023/01/12 05:14:39;;;;;;;7.10;2.70;;;6.00;99.90;;;6.67;97.76;98148.78;5220769;28;20617;-62
2023/01/12 05:17:12;;;;;;;7.40;2.67;;;6.10;99.90;;;6.72;99.02;98160.19;5218518;28;20276;-62
2023/01/12 05:19:47;;;;;;;5.83;2.47;;;6.10;99.90;;;6.64;100.00;98151.09;5219575;28;20309;-63
2023/01/12 05:22:20;;;;;;;5.53;2.70;;;6.10;99.90;;;6.63;100.00;98159.44;5220112;28;20252;-63
2023/01/12 05:24:54;;;;;;;5.93;2.60;;;6.00;99.90;;;6.65;100.00;98146.88;5224658;28;20295;-63
2023/01/12 05:27:27;;;;;;;6.60;2.83;;;6.00;99.90;;;6.65;100.00;98145.22;5220022;28;20279;-63
2023/01/12 05:30:00;;;;;;;4.33;2.50;;;6.00;99.90;;;6.87;98.17;98145.22;5217993;28;20613;-61
2023/01/12 05:32:37;;;;;;;7.17;3.00;;;6.10;99.90;;;6.92;97.05;98137.91;5221787;28;20225;-63
2023/01/12 05:35:10;;;;;;;5.57;2.63;;;6.20;99.90;;;6.87;97.43;98144.34;5214936;28;20204;-61
2023/01/12 05:37:43;;;;;;;5.93;2.70;;;6.30;99.90;;;6.77;98.51;98148.69;5221047;28;20320;-59
2023/01/12 05:40:18;;;;;;;6.23;2.70;;;6.20;99.90;;;6.88;98.38;98141.00;5218058;28;20319;-58
2023/01/12 05:45:53;;;;;;;6.10;2.83;;;6.30;99.90;;;7.19;94.97;98144.19;5178033;28;20712;-62
2023/01/12 05:48:27;;;;;;;5.40;3.10;;;6.50;99.90;;;7.32;94.14;98133.28;5210345;28;20225;-63
2023/01/12 05:51:01;;;;;;;3.97;2.40;;;6.70;99.90;;;7.33;92.89;98132.53;5216635;28;20197;-61
2023/01/12 05:53:34;;;;;;;9.83;2.90;;;6.70;99.90;;;7.44;91.43;98126.56;5218723;28;20247;-63
2023/01/12 05:56:12;;;;;;;6.40;2.77;;;6.90;99.90;;;7.60;91.29;98128.56;5218239;28;20733;-61
2023/01/12 05:58:50;;;;;;;6.50;3.13;;;7.00;99.90;;;7.64;90.68;98128.91;5220064;28;20193;-61
2023/01/12 06:01:23;;;;;;;7.70;3.90;;;7.10;99.90;;;7.55;91.83;98120.56;5216768;28;20364;-62
2023/01/12 06:03:59;;;;;;;6.57;3.53;;;7.10;99.90;;;7.62;91.53;98121.94;5221160;28;20228;-61
2023/01/12 06:06:32;;;;;;;6.83;3.10;;;7.10;99.90;;;7.63;91.23;98122.03;5218349;28;20212;-62
2023/01/12 06:09:05;;;;;;;8.03;2.70;;;7.10;99.90;;;7.67;89.90;98126.56;5220704;28;20256;-61
2023/01/12 06:14:30;;;;;;;5.30;2.40;;;7.30;99.90;;;7.78;90.18;98126.44;5220061;28;20219;-62
2023/01/12 06:17:04;;;;;;;5.90;2.80;;;7.30;99.90;;;7.78;90.00;98113.72;5217256;28;20205;-61
2023/01/12 06:19:37;;;;;;;5.23;2.30;;;7.20;99.90;;;7.80;89.28;98107.97;5220635;28;20287;-62
2023/01/12 06:22:10;;;;;;;7.30;2.70;;;7.30;99.90;;;7.78;89.49;98111.19;5223028;28;20245;-62
2023/01/12 06:24:46;;;;;;;6.53;2.60;;;7.20;99.90;;;7.66;90.15;98091.72;5217591;28;20289;-61
2023/01/12 06:27:21;;;;;;;8.20;3.00;;;7.20;99.90;;;7.82;89.64;98092.84;5218165;28;20292;-61
2023/01/12 06:29:54;;;;;;;7.43;2.57;;;7.20;99.90;;;7.96;88.13;98088.72;5206393;28;20200;-63
2023/01/12 06:36:34;;;;;;;5.30;2.53;;;7.40;99.90;;;7.94;86.62;98096.25;5166221;28;20193;-61
2023/01/12 06:39:07;;;;;;;7.47;2.63;;;7.50;99.90;;;7.82;87.56;98095.38;5222523;28;20201;-62
2023/01/12 06:44:33;;;;;;;7.57;2.83;;;7.20;99.90;;;7.92;86.43;98086.72;5218749;28;20561;-61
2023/01/12 06:47:06;;;;;;;7.50;3.50;;;7.40;99.90;;;7.94;86.24;98098.78;5220623;28;20203;-61
2023/01/12 06:49:39;;;;;;;8.23;2.70;;;7.40;99.90;;;7.89;85.40;98097.56;5217391;28;20351;-63
2023/01/12 06:52:12;;;;;;;7.77;2.30;;;7.40;99.90;;;7.90;85.20;98099.34;5219325;28;20198;-63
2023/01/12 06:54:45;;;;;;;9.93;2.97;;;7.60;99.90;;;7.94;85.23;98103.00;5216100;28;20197;-62
2023/01/12 06:57:18;;;;;;;5.77;2.77;;;7.60;99.90;;;7.94;85.05;98093.69;5218546;28;20295;-60
2023/01/12 06:59:53;;;;;;;5.50;3.10;;;7.60;99.90;;;7.92;84.73;98097.78;5216751;28;20886;-63
2023/01/12 07:02:26;;;;;;;4.27;2.40;;;7.50;99.90;;;7.97;84.80;98103.22;5219540;28;20212;-63
2023/01/12 07:04:59;;;;;;;5.53;2.70;;;7.60;99.90;;;8.00;84.40;98095.78;5220075;28;20703;-62
2023/01/12 07:07:32;;;;;;;5.83;2.83;;;7.60;99.90;;;7.87;85.22;98089.84;5220513;28;20626;-63
2023/01/12 07:10:06;;;;;;;7.73;3.00;;;7.50;99.90;;;7.97;86.41;98090.47;5215522;28;20673;-62
2023/01/12 07:12:40;;;;;;;6.60;2.90;;;7.40;99.90;;;8.07;84.80;98096.34;5221615;28;20308;-63
2023/01/12 07:15:15;;;;;;;6.40;2.80;;;7.50;99.90;;;7.95;85.10;98095.44;5222634;28;20614;-61
2023/01/12 07:17:52;;;;;;;6.20;2.60;;;7.40;99.90;;;7.88;86.08;98090.72;5214178;28;20730;-62
2023/01/12 07:20:27;;;;;;;5.60;2.80;;;7.30;99.90;;;8.04;84.15;98093.59;5210734;28;20634;-61
2023/01/12 07:23:00;;;;;;;3.33;2.47;;;7.40;99.90;;;8.13;84.32;98083.16;5217875;28;20228;-62
2023/01/12 07:25:33;;;;;;;7.73;2.43;;;7.60;99.90;;;8.10;83.94;98090.59;5216985;28;20631;-61
2023/01/12 07:28:06;;;;;;;8.83;2.80;;;7.50;99.90;;;8.06;84.43;98083.50;5212738;28;20587;-60
2023/01/12 07:30:41;;;;;;;6.97;2.47;;;7.60;99.90;;;8.07;83.97;98091.25;5219053;28;20215;-63
2023/01/12 07:33:15;;;;;;;4.87;2.90;;;7.70;99.90;;;8.09;84.02;98086.25;5216666;28;20225;-63
2023/01/12 07:35:50;;;;;;;8.07;2.97;;;7.70;99.90;;;8.05;84.14;98079.19;5225405;28;20196;-63
2023/01/12 07:38:24;;;;;;;4.20;2.60;;;7.70;99.90;;;8.11;84.36;98080.50;5224977;28;20225;-61
2023/01/12 07:40:58;;;;;;;9.10;3.23;;;7.70;99.90;;;8.15;83.91;98075.63;5222366;28;20201;-60
2023/01/12 07:43:32;;;;;;;7.13;2.87;;;7.70;99.90;;;8.17;83.79;98084.25;5222026;28;20224;-60
2023/01/12 07:46:07;;;;;;;5.10;2.73;;;7.70;99.90;;;8.20;83.73;98081.91;5222262;28;20241;-61
2023/01/12 07:48:40;;;;;;;5.77;2.63;;;7.80;99.90;;;8.20;83.56;98087.88;5218258;28;20233;-60
2023/01/12 07:51:13;;;;;;;5.27;2.70;;;7.90;99.90;;;8.21;83.25;98088.75;5221673;28;20200;-61
2023/01/12 07:53:47;;;;;;;5.57;2.70;;;8.00;99.90;;;8.27;83.22;98089.19;5221046;28;20309;-61
2023/01/12 07:56:21;;;;;;;8.33;3.07;;;7.90;99.90;;;8.24;83.45;98086.44;5226514;28;20196;-60
2023/01/12 07:58:54;;;;;;;5.17;3.03;;;7.80;99.90;;;8.27;83.81;98081.53;5214557;28;20236;-61
2023/01/12 08:01:31;;;;;;;6.20;2.47;;;7.80;99.90;;;8.33;82.39;98089.63;5217842;28;20600;-61
2023/01/12 08:04:04;;;;;;;8.53;2.70;;;7.90;99.90;;;8.32;82.60;98086.19;5218953;28;20279;-61
2023/01/12 08:06:38;;;;;;;6.30;2.97;;;7.90;99.90;;;8.29;83.83;98088.50;5214882;28;20233;-62
2023/01/12 08:09:11;;;;;;;5.50;3.22;;;7.80;99.90;;;8.38;83.51;98101.00;5222655;28;20718;-61
2023/01/12 08:11:44;;;;;;;6.30;3.43;;;7.80;99.90;;;8.41;82.91;98096.16;5217568;28;20628;-61
2023/01/12 08:14:27;;;;;;;5.40;3.33;;;7.70;99.90;;;8.46;82.76;98093.94;5215244;28;20656;-60
2023/01/12 08:17:03;;;;;;;6.32;2.53;;;7.80;99.90;;;8.49;82.96;98095.03;5225334;28;20205;-61
2023/01/12 08:19:43;;;;;;;4.93;2.67;;;7.90;99.90;;;8.52;81.92;98092.69;5219311;28;20229;-62
2023/01/12 08:22:20;;;;;;;8.80;3.47;;;7.90;99.90;;;8.48;82.83;98077.97;5222096;28;20235;-61
2023/01/12 08:24:59;;;;;;;9.75;6.07;;;7.90;99.90;;;8.53;82.08;98075.75;5225180;28;20296;-61
2023/01/12 08:27:37;;;;;;;4.30;2.97;;;7.90;99.90;;;8.52;81.45;98079.06;5219620;28;20635;-62
2023/01/12 08:30:15;;;;;;;4.68;2.40;;;8.00;99.90;;;8.63;80.49;98070.50;5215530;28;20851;-59
2023/01/12 08:32:50;;;;;;;5.47;2.67;;;8.10;99.90;;;8.75;80.31;98084.06;5218949;28;20274;-60
2023/01/12 08:35:26;;;;;;;4.73;2.87;;;8.10;99.90;;;8.66;81.35;98072.38;5222199;28;20243;-61
2023/01/12 08:37:59;;;;;;;4.67;2.90;;;8.10;99.90;;;8.78;80.06;98085.94;5224764;28;20384;-62
2023/01/12 08:44:00;;;;;;;5.07;2.72;;;8.10;99.90;;;8.88;79.67;98080.69;5217614;28;20247;-62
2023/01/12 08:46:12;;;;;;;6.28;3.20;;;8.30;99.90;;;8.96;79.10;98069.34;5219422;28;20204;-60
2023/01/12 08:48:47;;;;;;;6.05;2.70;;;8.50;99.90;;;9.05;78.31;98069.06;5222941;28;20224;-59
2023/01/12 08:51:20;;;;;;;3.35;2.38;;;8.60;99.90;;;9.07;77.97;98069.16;5225326;28;20201;-62
2023/01/12 08:53:53;;;;;;;4.47;1.98;;;8.70;99.90;;;9.15;78.17;98070.53;5222203;28;20263;-60
2023/01/12 08:56:26;;;;;;;4.00;1.85;;;8.80;99.90;;;9.15;77.40;98065.44;5216610;28;20283;-60
2023/01/12 08:59:00;;;;;;;3.80;2.05;;;8.90;99.90;;;9.17;77.94;98059.66;5223722;28;20197;-62
2023/01/12 09:01:34;;;;;;;3.28;2.50;;;8.90;99.90;;;9.28;76.13;98060.38;5227976;28;20239;-62
2023/01/12 09:04:09;;;;;;;3.58;2.28;;;9.00;99.90;;;9.29;77.04;98062.13;5229077;28;20244;-59
2023/01/12 09:06:44;;;;;;;3.97;2.65;;;9.00;99.90;;;9.27;77.31;98053.50;5224360;28;20204;-62
2023/01/12 09:09:20;;;;;;;5.82;2.33;;;8.90;99.90;;;9.35;76.18;98054.00;5223886;28;20225;-61
2023/01/12 09:11:54;;;;;;;4.57;2.00;;;8.90;99.90;;;9.35;76.47;98065.06;5224002;28;20236;-61
2023/01/12 09:14:28;;;;;;;3.90;2.25;;;9.10;99.90;;;9.28;76.74;98068.03;5224100;28;20201;-60
2023/01/12 09:17:01;;;;;;;5.00;2.22;;;9.00;99.90;;;9.35;77.18;98059.97;5224306;28;20200;-61
2023/01/12 09:19:35;;;;;;;4.38;2.17;;;9.00;99.90;;;9.34;77.33;98053.09;5215661;28;20205;-61
2023/01/12 09:22:10;;;;;;;3.67;2.53;;;8.90;99.90;;;9.46;75.97;98053.00;5221085;28;20204;-61
2023/01/12 09:24:44;;;;;;;5.50;2.60;;;9.00;99.90;;;9.37;76.95;98062.63;5225388;28;20312;-61
2023/01/12 09:27:17;;;;;;;6.53;2.42;;;8.80;99.90;;;9.43;76.45;98052.81;5216931;28;20305;-60
2023/01/12 09:29:50;;;;;;;3.58;2.10;;;8.90;99.90;;;9.47;76.51;98062.44;5216242;28;20735;-60
2023/01/12 09:32:23;;;;;;;4.15;2.17;;;9.00;99.90;;;9.46;76.19;98053.00;5210440;28;20249;-60
2023/01/12 09:35:09;;;;;;;4.65;2.33;;;9.10;99.90;;;9.47;76.51;98059.88;5216576;28;20197;-61
2023/01/12 09:37:43;;;;;;;5.20;2.53;;;9.00;99.90;;;9.56;75.99;98067.25;5224016;28;20291;-61
2023/01/12 09:40:19;;;;;;;3.05;2.55;;;9.10;99.90;;;9.52;76.58;98070.38;5219563;28;20289;-61
2023/01/12 09:48:35;;;;;;;4.85;2.28;;;9.10;99.90;;;9.55;76.94;98075.69;5223842;28;20553;-60
2023/01/12 09:51:17;;;;;;;5.13;2.22;;;9.10;99.90;;;9.53;75.60;98074.69;5222105;28;20225;-60
2023/01/12 09:53:50;;;;;;;4.35;2.13;;;9.20;99.90;;;9.53;77.60;98083.25;5219457;28;20679;-62
2023/01/12 09:56:29;;;;;;;4.20;2.13;;;9.10;99.90;;;9.58;76.89;98080.97;5222754;28;20301;-61
2023/01/12 09:59:18;;;;;;;5.85;2.13;;;9.20;99.90;;;9.51;76.16;98086.50;5220026;28;20419;-61
2023/01/12 10:01:53;;;;;;;6.13;2.22;;;9.20;99.90;;;9.54;76.81;98076.47;5220856;28;20210;-61
2023/01/12 10:04:26;;;;;;;4.53;2.20;;;9.20;99.90;;;9.58;76.63;98079.31;5219280;28;20207;-61
2023/01/12 10:07:01;;;;;;;4.10;2.08;;;9.20;99.90;;;9.60;76.73;98066.66;5215741;28;20256;-60
2023/01/12 10:09:36;;;;;;;5.55;1.95;;;9.10;99.90;;;9.63;75.31;98070.28;5220724;28;20251;-61
2023/01/12 10:12:21;;;;;;;3.53;1.98;;;9.30;99.90;;;9.59;75.96;98073.44;5219972;28;20196;-61
2023/01/12 10:15:25;;;;;;;4.38;2.00;;;9.20;99.90;;;9.67;74.52;98063.69;5213563;28;20208;-62
2023/01/12 10:18:04;;;;;;;4.35;2.30;;;9.30;99.90;;;9.64;75.86;98068.63;5218879;28;20196;-61
2023/01/12 10:20:40;;;;;;;3.95;2.03;;;9.40;99.90;;;9.67;74.72;98058.59;5222682;28;20204;-61
2023/01/12 10:23:23;;;;;;;2.88;2.00;;;9.40;99.90;;;9.61;76.53;98058.22;5213126;28;20306;-60
2023/01/12 10:26:09;;;;;;;5.32;2.80;;;9.30;99.90;;;9.76;75.34;98050.63;5219680;28;20221;-60
2023/01/12 10:28:45;;;;;;;5.13;2.60;;;9.40;99.90;;;9.72;74.76;98041.91;5222031;28;20584;-61
2023/01/12 10:31:22;;;;;;;5.35;2.42;;;9.30;99.90;;;9.73;75.33;98037.69;5220740;28;20224;-61
2023/01/12 10:34:05;;;;;;;5.35;2.50;;;9.40;99.90;;;9.74;75.55;98030.13;5223621;28;20316;-61
2023/01/12 10:36:44;;;;;;;5.25;2.30;;;9.40;99.90;;;9.78;76.14;98023.53;5217228;28;20229;-61
2023/01/12 10:39:31;;;;;;;2.85;2.40;;;9.40;99.90;;;9.87;74.63;98032.69;5214620;28;20553;-61
2023/01/12 10:45:24;;;;;;;3.38;1.92;;;9.60;99.90;;;9.79;74.82;98026.22;5171575;28;20297;-61
2023/01/12 10:47:57;;;;;;;5.05;2.20;;;9.60;99.90;;;9.82;76.07;98017.88;5209358;28;20689;-60
2023/01/12 10:50:34;;;;;;;4.95;2.17;;;9.40;99.90;;;9.84;76.47;98014.63;5216341;28;20260;-63
2023/01/12 10:53:15;;;;;;;5.63;2.25;;;9.50;99.90;;;9.81;76.19;98014.41;5218410;28;20263;-63
2023/01/12 10:55:50;;;;;;;5.32;2.38;;;9.50;99.90;;;9.90;75.86;98027.78;5223224;28;20341;-63
2023/01/12 10:58:29;;;;;;;5.30;2.03;;;9.40;99.90;;;9.91;76.89;98034.63;5222592;28;20200;-64
2023/01/12 11:01:05;;;;;;;4.00;2.40;;;9.40;99.90;;;9.96;74.92;98021.25;5220580;28;20232;-63
2023/01/12 11:03:40;;;;;;;4.22;2.45;;;9.40;99.90;;;10.02;74.77;98024.22;5216551;28;20235;-63
2023/01/12 11:06:26;;;;;;;3.65;2.50;;;9.50;99.90;;;9.96;76.56;98029.81;5211633;28;20666;-63
2023/01/12 11:09:19;;;;;;;2.88;1.92;;;9.40;99.90;;;9.99;75.90;98029.13;5219341;28;20552;-63
2023/01/12 11:11:59;;;;;;;3.92;2.20;;;9.50;99.90;;;10.08;75.06;98033.13;5215679;28;20731;-62
2023/01/12 11:14:36;;;;;;;6.40;2.47;;;9.50;99.90;;;10.16;74.91;98025.94;5217305;28;20583;-62
2023/01/12 11:17:31;;;;;;;4.60;2.38;;;9.60;99.90;;;10.10;75.45;98020.44;5216078;28;20661;-63
2023/01/12 11:20:15;;;;;;;5.07;2.72;;;9.60;99.90;;;10.06;75.01;98023.59;5219569;28;20202;-63
2023/01/12 11:22:53;;;;;;;4.55;2.75;;;9.60;99.90;;;10.06;75.79;98008.28;5215141;28;20311;-63
2023/01/12 11:25:30;;;;;;;6.82;3.03;;;9.60;99.90;;;10.11;74.52;98005.22;5219338;28;20205;-63
2023/01/12 11:28:14;;;;;;;4.53;2.58;;;9.70;99.90;;;10.11;74.83;97997.56;5220459;28;20220;-63
2023/01/12 11:30:53;;;;;;;4.20;2.70;;;9.70;99.90;;;10.12;74.74;97988.22;5218608;28;20644;-62
2023/01/12 11:33:32;;;;;;;5.05;2.88;;;9.70;99.90;;;10.11;75.47;97981.34;5222972;28;20235;-62
2023/01/12 11:36:08;;;;;;;4.43;2.70;;;9.70;99.90;;;10.13;75.12;97979.78;5215957;28;20193;-63
2023/01/12 11:38:45;;;;;;;3.67;2.90;;;9.70;99.90;;;10.15;74.94;97978.19;5219693;28;20721;-63
2023/01/12 11:41:24;;;;;;;3.50;3.10;;;9.80;99.90;;;10.06;74.02;97965.75;5216801;28;20190;-63
2023/01/12 11:44:10;;;;;;;4.85;3.40;;;9.70;99.90;;;10.00;75.39;97964.50;5216744;28;20316;-62
2023/01/12 11:46:47;;;;;;;4.13;2.55;;;9.70;99.90;;;10.05;74.42;97971.66;5218392;28;20846;-63
2023/01/12 11:49:26;;;;;;;5.78;3.28;;;9.80;99.90;;;10.13;74.57;97979.78;5221195;28;20649;-63
2023/01/12 11:52:01;;;;;;;3.95;2.80;;;9.70;99.90;;;10.10;74.54;97977.00;5222686;28;20649;-61
2023/01/12 11:54:38;;;;;;;3.53;2.60;;;9.70;99.90;;;10.04;73.92;97979.19;5219408;28;20193;-62